Time;durP1;ratioP1;P1;durP2;ratioP2;P2;SDS_P1;SDS_P2;PMS_P1;PMS_P2;Temp;Humidity;BMP_temperature;BMP_pressure;BME280_temperature;BME280_humidity;BME280_pressure;Samples;Min_cycle;Max_cycle;Signal;HPM_P1;HPM_P2
2022/08/05 00:01:19;;;;;;;13.52;2.85;;;32.20;66.50;;;;;;5046891;28;20078;-64
2022/08/05 00:03:47;;;;;;;16.25;3.75;;;32.30;68.30;;;;;;5011667;28;20078;-64
2022/08/05 00:06:14;;;;;;;15.55;3.65;;;32.40;69.00;;;;;;5036264;28;20097;-66
2022/08/05 00:08:41;;;;;;;15.07;4.13;;;32.30;67.20;;;;;;5013237;28;20096;-66
2022/08/05 00:11:15;;;;;;;21.90;4.68;;;32.40;66.70;;;;;;5032037;28;20425;-64
2022/08/05 00:13:43;;;;;;;20.73;4.22;;;32.40;66.40;;;;;;5031759;28;20105;-63
2022/08/05 00:16:13;;;;;;;18.27;4.68;;;32.50;66.70;;;;;;5022571;28;20729;-64
2022/08/05 00:18:42;;;;;;;14.13;3.55;;;32.60;66.10;;;;;;5031248;28;20078;-63
2022/08/05 00:21:09;;;;;;;16.60;3.17;;;32.60;65.50;;;;;;5015196;28;20084;-63
2022/08/05 00:23:37;;;;;;;11.18;2.70;;;32.60;64.50;;;;;;5045879;28;20086;-61
2022/08/05 00:26:03;;;;;;;10.52;2.67;;;32.70;64.40;;;;;;5031703;28;20099;-64
2022/08/05 00:28:30;;;;;;;18.73;4.00;;;32.70;65.50;;;;;;5031618;28;20598;-64
2022/08/05 00:30:56;;;;;;;19.05;3.95;;;32.80;66.60;;;;;;5041294;28;20547;-64
2022/08/05 00:33:23;;;;;;;17.50;4.07;;;32.90;67.30;;;;;;5043926;28;20080;-64
2022/08/05 00:35:49;;;;;;;17.20;2.97;;;33.00;66.50;;;;;;5046893;28;20518;-65
2022/08/05 00:38:15;;;;;;;11.68;3.42;;;32.90;65.50;;;;;;5046477;28;20092;-65
2022/08/05 00:40:56;;;;;;;10.27;3.15;;;32.90;64.30;;;;;;5035829;28;20081;-64
2022/08/05 00:43:22;;;;;;;13.85;3.30;;;32.80;63.20;;;;;;5035818;28;20496;-64
2022/08/05 00:45:49;;;;;;;9.85;2.30;;;32.70;62.20;;;;;;5029703;28;20083;-64
2022/08/05 00:48:21;;;;;;;8.88;2.55;;;32.70;61.60;;;;;;5043820;28;20218;-66
2022/08/05 00:50:50;;;;;;;11.30;2.15;;;32.70;60.90;;;;;;5033455;28;20100;-67
2022/08/05 00:53:19;;;;;;;8.55;2.03;;;32.80;60.80;;;;;;5044017;28;20895;-64
2022/08/05 00:55:45;;;;;;;13.10;2.47;;;32.80;60.90;;;;;;5039422;28;20660;-66
2022/08/05 00:58:15;;;;;;;10.48;2.50;;;32.70;91.40;;;;;;5035337;28;20075;-66
2022/08/05 01:00:43;;;;;;;12.07;2.50;;;32.70;61.40;;;;;;5043761;28;20045;-64
2022/08/05 01:03:10;;;;;;;11.38;2.40;;;32.70;60.40;;;;;;5049633;28;20097;-64
2022/08/05 01:05:37;;;;;;;12.65;2.38;;;32.40;83.90;;;;;;5038869;28;20050;-64
2022/08/05 01:08:04;;;;;;;7.63;2.20;;;32.70;61.00;;;;;;5031414;28;20075;-64
2022/08/05 01:10:51;;;;;;;13.07;2.95;;;32.70;61.70;;;;;;5044110;28;20435;-64
2022/08/05 01:13:27;;;;;;;9.95;2.47;;;32.80;76.50;;;;;;5020361;28;20092;-62
2022/08/05 01:16:00;;;;;;;8.83;2.37;;;32.70;61.30;;;;;;5047845;28;20034;-64
2022/08/05 01:18:31;;;;;;;8.52;2.53;;;32.80;61.60;;;;;;5032503;28;20068;-64
2022/08/05 01:21:14;;;;;;;10.35;2.30;;;32.80;61.40;;;;;;5035874;28;20079;-66
2022/08/05 01:24:10;;;;;;;9.68;2.05;;;32.80;59.40;;;;;;5061783;28;20187;-64
2022/08/05 01:27:07;;;;;;;11.55;2.35;;;32.70;58.80;;;;;;5034853;28;20074;-62
2022/08/05 01:29:44;;;;;;;10.85;2.20;;;32.80;58.20;;;;;;5037146;28;20191;-66
2022/08/05 01:32:13;;;;;;;10.27;2.35;;;32.80;58.70;;;;;;5032604;28;20091;-63
2022/08/05 01:34:57;;;;;;;9.85;2.30;;;32.80;58.50;;;;;;5036688;28;20092;-64
2022/08/05 01:38:01;;;;;;;9.75;2.50;;;32.80;57.90;;;;;;5035357;28;20147;-64
2022/08/05 01:40:30;;;;;;;13.70;2.53;;;32.80;58.30;;;;;;5027875;28;20110;-62
2022/08/05 01:43:01;;;;;;;13.02;2.70;;;32.80;58.30;;;;;;5014044;28;20074;-64
2022/08/05 01:45:30;;;;;;;16.40;2.75;;;32.70;58.60;;;;;;5047485;28;20068;-64
2022/08/05 01:48:00;;;;;;;14.73;3.85;;;32.70;58.70;;;;;;5035379;28;20578;-63
2022/08/05 01:50:30;;;;;;;16.65;3.22;;;32.70;58.70;;;;;;5029759;28;20500;-64
2022/08/05 01:53:01;;;;;;;20.15;3.90;;;32.70;58.80;;;;;;5033358;28;20153;-64
2022/08/05 01:55:30;;;;;;;22.17;3.40;;;32.60;58.90;;;;;;5033659;28;20088;-65
2022/08/05 01:57:57;;;;;;;24.75;4.10;;;32.60;59.10;;;;;;5030343;28;20103;-63
2022/08/05 02:00:26;;;;;;;19.48;3.20;;;32.50;59.60;;;;;;5038523;28;20073;-64
2022/08/05 02:03:11;;;;;;;18.35;3.10;;;32.50;59.70;;;;;;5023026;28;20072;-63
2022/08/05 02:05:39;;;;;;;25.88;3.58;;;32.50;60.40;;;;;;5022679;28;20111;-64
2022/08/05 02:08:07;;;;;;;28.60;3.70;;;32.60;79.50;;;;;;5034526;28;20105;-64
2022/08/05 02:11:01;;;;;;;20.45;4.25;;;32.40;63.60;;;;;;5042754;28;20090;-62
2022/08/05 02:13:51;;;;;;;26.83;4.20;;;32.40;64.80;;;;;;5047187;28;20426;-63
2022/08/05 02:16:35;;;;;;;18.75;3.90;;;32.30;66.00;;;;;;5045373;28;20073;-62
2022/08/05 02:19:04;;;;;;;27.38;4.40;;;32.20;66.90;;;;;;5028050;28;20076;-63
2022/08/05 02:21:38;;;;;;;19.70;3.78;;;32.10;67.40;;;;;;5033581;28;20102;-63
2022/08/05 02:24:08;;;;;;;21.88;3.20;;;32.10;67.00;;;;;;5046803;28;20437;-61
2022/08/05 02:26:50;;;;;;;22.88;4.05;;;32.10;66.60;;;;;;5034106;28;20070;-63
2022/08/05 02:29:21;;;;;;;13.57;3.47;;;32.00;66.70;;;;;;5047286;28;20078;-63
2022/08/05 02:31:50;;;;;;;20.17;3.67;;;32.00;65.60;;;;;;5050437;28;20090;-62
2022/08/05 02:34:18;;;;;;;18.42;3.17;;;31.90;65.50;;;;;;5036467;28;20075;-63
2022/08/05 02:36:53;;;;;;;20.50;3.50;;;31.90;65.10;;;;;;5026457;28;20091;-66
2022/08/05 02:39:22;;;;;;;24.27;3.53;;;31.90;65.30;;;;;;5061409;28;20121;-63
2022/08/05 02:41:49;;;;;;;18.92;3.55;;;31.80;65.40;;;;;;5033256;28;20076;-64
2022/08/05 02:44:16;;;;;;;21.35;3.13;;;31.80;65.60;;;;;;5033145;28;20537;-61
2022/08/05 02:46:46;;;;;;;25.10;3.53;;;31.70;82.20;;;;;;5015828;28;20511;-63
2022/08/05 02:49:17;;;;;;;19.17;3.65;;;31.80;66.00;;;;;;5035524;28;20118;-64
2022/08/05 02:51:44;;;;;;;15.02;3.75;;;31.70;65.80;;;;;;5032516;28;20163;-63
2022/08/05 02:54:13;;;;;;;21.67;3.65;;;31.70;65.60;;;;;;4999960;28;20088;-63
2022/08/05 02:56:43;;;;;;;24.50;3.83;;;31.70;65.90;;;;;;5044263;28;20168;-62
2022/08/05 02:59:15;;;;;;;23.95;5.10;;;31.60;65.50;;;;;;5043538;28;20072;-63
2022/08/05 03:01:43;;;;;;;15.65;3.92;;;31.60;65.50;;;;;;5044450;28;20081;-63
2022/08/05 03:04:13;;;;;;;14.55;3.75;;;31.60;65.80;;;;;;5028454;28;20467;-63
2022/08/05 03:06:41;;;;;;;13.98;3.50;;;31.60;65.80;;;;;;5041751;28;20537;-64
2022/08/05 03:09:11;;;;;;;22.38;3.80;;;31.60;65.90;;;;;;5029487;28;20076;-62
2022/08/05 03:11:42;;;;;;;26.70;3.97;;;31.60;66.20;;;;;;5030614;28;20092;-63
2022/08/05 03:14:10;;;;;;;18.42;3.10;;;31.60;66.80;;;;;;5045599;28;20071;-64
2022/08/05 03:16:36;;;;;;;22.00;3.45;;;31.50;66.80;;;;;;5017469;28;20066;-65
2022/08/05 03:19:03;;;;;;;16.65;3.45;;;31.60;67.70;;;;;;5024383;28;20152;-63
2022/08/05 03:21:30;;;;;;;14.30;2.80;;;31.50;67.70;;;;;;5023916;28;20080;-64
2022/08/05 03:23:57;;;;;;;20.63;3.50;;;31.50;68.00;;;;;;5033961;28;20103;-66
2022/08/05 03:26:24;;;;;;;12.93;2.70;;;31.50;68.70;;;;;;5034737;28;20079;-66
2022/08/05 03:28:50;;;;;;;21.90;3.17;;;31.60;69.30;;;;;;5030615;28;20126;-64
2022/08/05 03:31:17;;;;;;;14.70;2.65;;;31.60;69.10;;;;;;5031163;28;20085;-63
2022/08/05 03:33:44;;;;;;;15.13;3.67;;;31.60;69.10;;;;;;5047544;28;20071;-65
2022/08/05 03:36:11;;;;;;;21.38;3.70;;;31.50;69.60;;;;;;5045106;28;20075;-63
2022/08/05 03:38:41;;;;;;;18.70;4.15;;;31.50;69.60;;;;;;5033262;28;20112;-63
2022/08/05 03:41:09;;;;;;;22.70;3.75;;;31.50;69.80;;;;;;5033267;28;20068;-66
2022/08/05 03:43:37;;;;;;;13.82;3.90;;;31.40;69.50;;;;;;5033625;28;20129;-65
2022/08/05 03:46:04;;;;;;;15.88;4.38;;;31.40;70.30;;;;;;5032647;28;20091;-63
2022/08/05 03:48:30;;;;;;;20.17;5.22;;;31.40;70.00;;;;;;5022101;28;20123;-66
2022/08/05 03:51:06;;;;;;;22.00;4.85;;;31.40;70.30;;;;;;5020553;28;20531;-64
2022/08/05 03:53:48;;;;;;;31.48;5.65;;;31.40;70.00;;;;;;5036164;28;20562;-64
2022/08/05 03:56:28;;;;;;;34.45;5.55;;;31.40;70.00;;;;;;5038815;28;20126;-67
2022/08/05 03:59:02;;;;;;;22.85;5.60;;;31.40;68.80;;;;;;5047878;28;20136;-66
2022/08/05 04:01:31;;;;;;;15.48;5.05;;;31.40;69.50;;;;;;5036647;28;20099;-67
2022/08/05 04:03:59;;;;;;;19.13;4.75;;;31.40;69.30;;;;;;5038235;28;20483;-66
2022/08/05 04:06:27;;;;;;;17.63;4.47;;;31.50;69.10;;;;;;5044075;28;20081;-68
2022/08/05 04:08:54;;;;;;;19.63;5.75;;;31.50;69.10;;;;;;5050816;28;20557;-69
2022/08/05 04:11:21;;;;;;;23.33;5.18;;;31.50;68.90;;;;;;5051147;28;20085;-68
2022/08/05 04:13:48;;;;;;;21.65;5.22;;;31.50;68.80;;;;;;5048743;28;20068;-66
2022/08/05 04:16:15;;;;;;;25.00;5.25;;;31.50;69.00;;;;;;5036008;28;20092;-67
2022/08/05 04:18:45;;;;;;;24.15;6.30;;;31.50;69.00;;;;;;5042258;28;20073;-66
2022/08/05 04:21:12;;;;;;;18.77;6.72;;;31.40;69.30;;;;;;5043803;28;20079;-68
2022/08/05 04:23:39;;;;;;;28.98;7.45;;;31.40;69.40;;;;;;5044365;28;20092;-68
2022/08/05 04:26:05;;;;;;;25.02;6.75;;;31.40;70.00;;;;;;5038897;28;20068;-67
2022/08/05 04:28:31;;;;;;;26.20;7.60;;;31.40;69.60;;;;;;5048415;28;20106;-66
2022/08/05 04:30:59;;;;;;;20.30;6.32;;;31.40;69.80;;;;;;5047325;28;20466;-67
2022/08/05 04:33:26;;;;;;;23.27;6.07;;;31.40;69.70;;;;;;5051279;28;20154;-66
2022/08/05 04:35:52;;;;;;;22.35;6.22;;;31.40;69.40;;;;;;5041427;28;20080;-67
2022/08/05 04:38:18;;;;;;;23.85;6.10;;;31.40;69.20;;;;;;5047634;28;20122;-66
2022/08/05 04:40:45;;;;;;;23.80;6.28;;;31.40;69.10;;;;;;5020890;28;20076;-67
2022/08/05 04:43:11;;;;;;;23.95;6.25;;;31.40;69.00;;;;;;5020553;28;20083;-67
2022/08/05 04:45:38;;;;;;;25.48;6.10;;;31.50;68.60;;;;;;5039664;28;20096;-67
2022/08/05 04:48:04;;;;;;;21.67;7.22;;;31.50;68.50;;;;;;5051498;28;20470;-67
2022/08/05 04:50:31;;;;;;;21.42;6.82;;;31.50;68.60;;;;;;5037738;28;20097;-66
2022/08/05 04:52:58;;;;;;;28.42;7.20;;;31.40;68.10;;;;;;5036960;28;20088;-66
2022/08/05 04:55:24;;;;;;;23.80;6.38;;;31.40;67.90;;;;;;5049630;28;20631;-68
2022/08/05 04:57:51;;;;;;;24.15;6.25;;;31.40;68.00;;;;;;5040307;28;20079;-66
2022/08/05 05:00:18;;;;;;;22.15;6.53;;;31.40;68.00;;;;;;5041590;28;20160;-67
2022/08/05 05:02:45;;;;;;;21.17;6.47;;;31.40;67.80;;;;;;5030165;28;20069;-66
2022/08/05 05:06:06;;;;;;;29.60;6.60;;;31.40;67.60;;;;;;5050483;28;20145;-69
2022/08/05 05:08:26;;;;;;;19.85;6.25;;;31.40;67.40;;;;;;5036826;28;20080;-68
2022/08/05 05:10:54;;;;;;;23.75;6.43;;;31.40;67.30;;;;;;5046713;28;20212;-67
2022/08/05 05:13:21;;;;;;;25.08;5.18;;;31.40;68.10;;;;;;5051169;28;20069;-66
2022/08/05 05:15:48;;;;;;;14.82;5.50;;;31.40;67.30;;;;;;5040555;28;20075;-69
2022/08/05 05:18:15;;;;;;;31.48;5.50;;;31.30;67.50;;;;;;5045815;28;20085;-68
2022/08/05 05:20:46;;;;;;;21.13;5.25;;;31.40;67.50;;;;;;5032189;28;20171;-67
2022/08/05 05:23:13;;;;;;;24.35;8.23;;;31.30;67.20;;;;;;5034529;28;20080;-68
2022/08/05 05:25:43;;;;;;;23.08;5.93;;;31.30;67.40;;;;;;5049879;28;20490;-67
2022/08/05 05:28:10;;;;;;;24.17;4.97;;;31.30;67.80;;;;;;5046027;28;20076;-67
2022/08/05 05:30:38;;;;;;;16.13;4.88;;;31.30;68.00;;;;;;5030104;28;20092;-70
2022/08/05 05:33:07;;;;;;;14.25;4.57;;;31.20;68.10;;;;;;5030172;28;20079;-67
2022/08/05 05:35:34;;;;;;;29.80;5.32;;;31.20;68.60;;;;;;5036496;28;20151;-68
2022/08/05 05:38:05;;;;;;;23.42;5.13;;;31.20;69.10;;;;;;5028269;28;20084;-70
2022/08/05 05:40:32;;;;;;;23.50;4.85;;;31.20;68.20;;;;;;5037696;28;20449;-67
2022/08/05 05:42:59;;;;;;;30.23;6.63;;;31.10;68.50;;;;;;5018005;28;20088;-67
2022/08/05 05:45:26;;;;;;;25.63;5.88;;;31.10;68.70;;;;;;5039572;28;20126;-68
2022/08/05 05:47:52;;;;;;;24.40;5.75;;;31.10;68.70;;;;;;5045690;28;20119;-66
2022/08/05 05:50:19;;;;;;;17.77;5.85;;;31.10;70.00;;;;;;5031343;28;20094;-69
2022/08/05 05:52:47;;;;;;;26.52;5.60;;;31.10;69.70;;;;;;5028621;28;20074;-69
2022/08/05 05:55:16;;;;;;;49.80;7.32;;;31.10;70.10;;;;;;5044494;28;20162;-67
2022/08/05 05:57:44;;;;;;;44.53;7.05;;;31.10;70.10;;;;;;5041809;28;20082;-65
2022/08/05 06:00:17;;;;;;;39.53;7.43;;;31.10;71.30;;;;;;5044034;28;20534;-68
2022/08/05 06:02:45;;;;;;;36.17;7.20;;;31.00;71.00;;;;;;5034015;28;20077;-67
2022/08/05 06:05:13;;;;;;;43.33;8.50;;;31.00;70.90;;;;;;5033729;28;20164;-67
2022/08/05 06:07:40;;;;;;;33.00;7.07;;;30.90;70.00;;;;;;5018543;28;20073;-66
2022/08/05 06:10:08;;;;;;;40.22;8.02;;;30.90;70.00;;;;;;5042126;28;20175;-67
2022/08/05 06:12:36;;;;;;;38.15;8.35;;;30.90;70.60;;;;;;5041451;28;20509;-66
2022/08/05 06:15:04;;;;;;;37.53;8.27;;;30.90;70.70;;;;;;5030425;28;20077;-69
2022/08/05 06:17:30;;;;;;;36.80;8.45;;;30.90;71.20;;;;;;5019040;28;20085;-67
2022/08/05 06:19:57;;;;;;;37.00;8.82;;;30.90;71.50;;;;;;5033569;28;20566;-66
2022/08/05 06:22:27;;;;;;;41.85;9.45;;;30.90;71.90;;;;;;5033741;28;20088;-68
2022/08/05 06:24:53;;;;;;;47.38;8.77;;;30.90;72.10;;;;;;5063831;28;20077;-69
2022/08/05 06:27:20;;;;;;;53.00;9.85;;;30.90;72.00;;;;;;5045339;28;20530;-70
2022/08/05 06:29:46;;;;;;;44.38;9.55;;;30.90;72.30;;;;;;5041055;28;20113;-70
2022/08/05 06:32:13;;;;;;;39.13;9.60;;;30.90;72.20;;;;;;5038652;28;20492;-67
2022/08/05 06:34:39;;;;;;;45.55;9.82;;;30.90;72.00;;;;;;5047962;28;20069;-67
2022/08/05 06:37:06;;;;;;;47.58;10.02;;;30.80;72.20;;;;;;5041335;28;20069;-69
2022/08/05 06:39:32;;;;;;;50.65;11.38;;;30.80;72.60;;;;;;5043557;28;20097;-68
2022/08/05 06:42:01;;;;;;;43.55;9.65;;;30.80;73.10;;;;;;5032488;28;20169;-69
2022/08/05 06:44:29;;;;;;;55.85;11.82;;;30.80;72.90;;;;;;5033780;28;20507;-69
2022/08/05 06:46:55;;;;;;;55.08;10.20;;;30.80;73.10;;;;;;5043226;28;20093;-66
2022/08/05 06:49:22;;;;;;;51.60;11.48;;;30.70;73.10;;;;;;5034473;28;20113;-68
2022/08/05 06:51:49;;;;;;;48.78;11.23;;;30.70;73.20;;;;;;5036212;28;20100;-67
2022/08/05 06:54:16;;;;;;;43.58;11.25;;;30.60;73.50;;;;;;5036345;28;20196;-68
2022/08/05 06:56:42;;;;;;;45.15;11.55;;;30.60;73.70;;;;;;5030020;28;20064;-68
2022/08/05 06:59:10;;;;;;;37.70;10.25;;;30.60;74.00;;;;;;5044336;28;20130;-67
2022/08/05 07:01:37;;;;;;;44.42;10.30;;;30.50;74.70;;;;;;5033515;28;20454;-69
2022/08/05 07:04:03;;;;;;;40.92;11.20;;;30.50;75.70;;;;;;5031959;28;20077;-69
2022/08/05 07:06:30;;;;;;;45.28;10.70;;;30.60;75.50;;;;;;5035160;28;20082;-68
2022/08/05 07:08:56;;;;;;;40.83;10.60;;;30.60;75.30;;;;;;5032725;28;20562;-68
2022/08/05 07:11:23;;;;;;;49.80;11.70;;;30.50;75.50;;;;;;5044278;28;20556;-68
2022/08/05 07:16:49;;;;;;;45.10;10.57;;;30.60;75.00;;;;;;5032218;28;20673;-67
2022/08/05 07:19:18;;;;;;;42.05;10.63;;;30.50;74.80;;;;;;5043523;28;20494;-69
2022/08/05 07:21:49;;;;;;;54.25;10.57;;;30.50;75.10;;;;;;5015437;28;20501;-68
2022/08/05 07:24:17;;;;;;;47.20;9.90;;;30.50;75.70;;;;;;5043621;28;20435;-69
2022/08/05 07:26:44;;;;;;;33.40;10.80;;;30.50;76.00;;;;;;5045084;28;20076;-69
2022/08/05 07:29:11;;;;;;;32.58;9.93;;;30.50;75.70;;;;;;5027112;28;21364;-67
2022/08/05 07:31:37;;;;;;;42.75;10.57;;;30.50;75.50;;;;;;5045284;28;20101;-67
2022/08/05 07:34:04;;;;;;;39.72;11.45;;;30.40;75.60;;;;;;5015774;28;20077;-71
2022/08/05 07:36:32;;;;;;;43.13;10.65;;;30.50;75.50;;;;;;5033973;28;20128;-70
2022/08/05 07:39:04;;;;;;;26.45;10.05;;;30.40;75.60;;;;;;5024351;28;20073;-70
2022/08/05 07:41:31;;;;;;;45.58;10.93;;;30.50;76.20;;;;;;5031596;28;20582;-70
2022/08/05 07:43:58;;;;;;;39.58;9.57;;;30.40;76.20;;;;;;5031436;28;20146;-72
2022/08/05 07:46:31;;;;;;;34.72;10.48;;;30.40;76.00;;;;;;5032918;28;20078;-68
2022/08/05 07:49:00;;;;;;;49.58;11.02;;;30.40;76.00;;;;;;5034427;28;20142;-67
2022/08/05 07:51:26;;;;;;;36.97;10.32;;;30.40;76.00;;;;;;5043589;28;20131;-69
2022/08/05 07:53:53;;;;;;;40.05;9.85;;;30.40;75.90;;;;;;5043432;28;20485;-66
2022/08/05 07:56:19;;;;;;;34.13;9.60;;;30.40;75.60;;;;;;5033096;28;20077;-68
2022/08/05 07:58:47;;;;;;;36.00;10.35;;;30.30;75.80;;;;;;5046728;28;20091;-65
2022/08/05 08:01:14;;;;;;;44.67;10.40;;;30.30;76.40;;;;;;5034348;28;20074;-73
2022/08/05 08:03:40;;;;;;;28.50;8.93;;;30.30;76.80;;;;;;5045269;28;20077;-70
2022/08/05 08:06:07;;;;;;;28.90;9.43;;;30.30;76.60;;;;;;5044262;28;20097;-71
2022/08/05 08:08:33;;;;;;;33.05;10.23;;;30.30;76.50;;;;;;5032786;28;20413;-67
2022/08/05 08:11:00;;;;;;;38.35;10.82;;;30.30;76.40;;;;;;5041018;28;20192;-69
2022/08/05 08:13:29;;;;;;;39.88;11.50;;;30.30;76.40;;;;;;5029038;28;20157;-68
2022/08/05 08:15:55;;;;;;;42.60;10.32;;;30.30;76.40;;;;;;5033900;28;20092;-67
2022/08/05 08:18:21;;;;;;;39.03;11.70;;;30.20;76.40;;;;;;5044251;28;20077;-68
2022/08/05 08:20:50;;;;;;;39.78;11.75;;;30.20;76.50;;;;;;5043950;28;20081;-69
2022/08/05 08:23:17;;;;;;;41.75;11.73;;;30.20;76.60;;;;;;5047370;28;20073;-67
2022/08/05 08:25:44;;;;;;;36.60;12.40;;;30.20;76.70;;;;;;5028284;28;20591;-69
2022/08/05 08:28:11;;;;;;;37.30;13.45;;;30.20;76.70;;;;;;5043217;28;20139;-68
2022/08/05 08:30:37;;;;;;;41.08;14.10;;;30.20;76.10;;;;;;5042421;28;20088;-67
2022/08/05 08:33:10;;;;;;;35.42;13.98;;;30.20;76.00;;;;;;5046776;28;20240;-67
2022/08/05 08:35:37;;;;;;;45.38;14.43;;;30.20;76.50;;;;;;5033061;28;20459;-67
2022/08/05 08:38:03;;;;;;;53.35;14.00;;;30.20;76.80;;;;;;5040793;28;20525;-68
2022/08/05 08:40:34;;;;;;;50.35;14.50;;;30.20;77.50;;;;;;5040363;28;20104;-67
2022/08/05 08:43:01;;;;;;;41.30;13.68;;;30.10;77.70;;;;;;5038786;28;20437;-67
2022/08/05 16:14:09;;;;;;;19.92;5.72;;;35.10;82.70;;;;;;4506569;28;20193;-67
2022/08/05 16:16:36;;;;;;;15.52;4.40;;;35.20;56.70;;;;;;4953373;28;20027;-68
2022/08/05 16:19:03;;;;;;;15.57;4.72;;;35.10;56.60;;;;;;4959663;28;20093;-66
2022/08/05 16:21:30;;;;;;;22.08;4.22;;;35.20;56.50;;;;;;4952737;28;20075;-67
2022/08/05 16:23:56;;;;;;;26.85;5.22;;;35.20;56.20;;;;;;4952774;28;20149;-66
2022/08/05 16:26:23;;;;;;;24.85;5.40;;;35.60;55.10;;;;;;4953053;28;20094;-66
2022/08/05 16:28:49;;;;;;;36.85;4.80;;;35.90;55.00;;;;;;4968854;28;20133;-66
2022/08/05 16:31:16;;;;;;;22.58;5.25;;;36.10;54.60;;;;;;4953660;28;20462;-65
2022/08/05 16:33:44;;;;;;;19.08;5.03;;;36.40;54.50;;;;;;4953713;28;20072;-66
2022/08/05 16:36:10;;;;;;;25.52;5.45;;;36.60;53.80;;;;;;4968360;28;20537;-67
2022/08/05 16:38:37;;;;;;;35.28;5.70;;;36.60;54.10;;;;;;4953200;28;20442;-69
2022/08/05 16:41:03;;;;;;;21.58;5.40;;;36.80;52.80;;;;;;4969893;28;20540;-67
2022/08/05 16:43:32;;;;;;;26.05;6.03;;;37.00;53.10;;;;;;4969629;28;20099;-68
2022/08/05 16:46:01;;;;;;;41.38;6.68;;;37.20;52.30;;;;;;4952553;28;20061;-67
2022/08/05 16:48:27;;;;;;;32.72;5.47;;;37.30;52.60;;;;;;4952749;28;20609;-66
2022/08/05 16:50:53;;;;;;;26.70;4.57;;;36.70;64.80;;;;;;4951529;28;20465;-66
2022/08/05 16:53:22;;;;;;;23.50;4.70;;;37.10;68.80;;;;;;4952410;28;20057;-65
2022/08/05 16:55:49;;;;;;;91.97;8.52;;;37.50;65.10;;;;;;4955949;28;20090;-65
2022/08/05 16:58:15;;;;;;;27.90;5.40;;;37.90;57.20;;;;;;4952854;28;20052;-68
2022/08/05 17:00:42;;;;;;;116.20;9.00;;;38.00;76.50;;;;;;4970906;28;20030;-65
2022/08/05 17:03:08;;;;;;;36.70;5.88;;;37.90;52.80;;;;;;4935822;28;20054;-64
2022/08/05 17:05:35;;;;;;;34.63;4.97;;;37.90;50.60;;;;;;4952206;28;20445;-65
2022/08/05 17:08:01;;;;;;;37.78;4.53;;;39.40;48.60;;;;;;4953849;28;20041;-66
2022/08/05 17:10:27;;;;;;;47.50;4.65;;;38.50;48.60;;;;;;4970564;28;20358;-78
2022/08/05 17:12:54;;;;;;;15.48;3.25;;;38.20;60.90;;;;;;4955211;28;20061;-64
2022/08/05 17:15:20;;;;;;;13.27;3.60;;;38.70;63.00;;;;;;4957139;28;20084;-66
2022/08/05 17:17:47;;;;;;;16.33;3.00;;;38.40;48.50;;;;;;4974899;28;20041;-64
2022/08/05 17:20:13;;;;;;;14.07;3.45;;;38.80;47.50;;;;;;4939587;28;20039;-66
2022/08/05 17:22:40;;;;;;;35.15;3.95;;;38.80;48.00;;;;;;4955659;28;20034;-64
2022/08/05 17:25:06;;;;;;;42.72;4.55;;;39.10;47.30;;;;;;4956266;28;20055;-65
2022/08/05 17:27:33;;;;;;;19.45;4.20;;;39.20;46.40;;;;;;4956668;28;20075;-69
2022/08/05 17:29:59;;;;;;;59.30;5.15;;;39.10;46.40;;;;;;4957659;28;20151;-67
2022/08/05 17:32:26;;;;;;;30.08;5.70;;;39.00;58.10;;;;;;4971652;28;20508;-66
2022/08/05 17:34:52;;;;;;;16.63;3.38;;;39.50;57.10;;;;;;4955562;28;20064;-64
2022/08/05 17:37:19;;;;;;;13.32;3.75;;;39.00;57.90;;;;;;4963750;28;20138;-64
2022/08/05 17:39:46;;;;;;;15.45;3.63;;;39.40;59.50;;;;;;4955268;28;20463;-64
2022/08/05 17:42:12;;;;;;;15.07;3.33;;;39.50;58.70;;;;;;4955436;28;20034;-64
2022/08/05 17:44:39;;;;;;;28.77;4.43;;;39.60;46.10;;;;;;4939285;28;20027;-66
2022/08/05 17:47:05;;;;;;;17.08;3.75;;;40.40;51.00;;;;;;4955075;28;20023;-65
2022/08/05 17:49:33;;;;;;;25.05;4.28;;;39.70;48.90;;;;;;4955230;28;20026;-66
2022/08/05 17:51:59;;;;;;;30.50;4.28;;;39.90;60.10;;;;;;4971982;28;20031;-64
2022/08/05 17:54:26;;;;;;;16.27;3.30;;;;;;;;;;4958545;28;20035;-65
2022/08/05 17:56:52;;;;;;;11.50;3.00;;;40.20;64.60;;;;;;4955174;28;20035;-66
2022/08/05 17:59:18;;;;;;;16.42;3.20;;;40.00;45.90;;;;;;4971788;28;20030;-68
2022/08/05 18:01:45;;;;;;;13.23;3.28;;;40.00;53.00;;;;;;4955825;28;20034;-67
2022/08/05 18:04:11;;;;;;;15.68;3.38;;;39.90;51.00;;;;;;4954220;28;20128;-67
2022/08/05 18:06:38;;;;;;;15.55;3.90;;;40.10;47.50;;;;;;4938950;28;20064;-66
2022/08/05 18:09:04;;;;;;;17.92;3.58;;;40.40;60.80;;;;;;4957105;28;20051;-66
2022/08/05 18:11:31;;;;;;;22.50;3.03;;;40.20;48.20;;;;;;4955056;28;20065;-66
2022/08/05 18:13:57;;;;;;;17.00;3.35;;;40.20;48.80;;;;;;4954657;28;20035;-67
2022/08/05 18:16:23;;;;;;;16.05;3.40;;;40.20;47.50;;;;;;4954449;28;20044;-67
2022/08/05 18:18:50;;;;;;;14.15;3.15;;;40.10;46.40;;;;;;4940872;28;20126;-65
2022/08/05 18:21:16;;;;;;;14.82;3.30;;;40.40;55.20;;;;;;4972091;28;20115;-64
2022/08/05 18:23:43;;;;;;;14.82;3.58;;;40.50;55.10;;;;;;4954062;28;20093;-66
2022/08/05 18:26:09;;;;;;;16.73;2.90;;;40.70;45.60;;;;;;4954650;28;20045;-64
2022/08/05 18:28:38;;;;;;;8.65;2.70;;;40.90;44.80;;;;;;4954004;28;20484;-67
2022/08/05 18:31:05;;;;;;;28.38;3.10;;;40.80;43.60;;;;;;4972574;28;20034;-67
2022/08/05 18:33:32;;;;;;;19.10;3.10;;;40.90;43.30;;;;;;4972563;28;20029;-66
2022/08/05 18:35:58;;;;;;;14.25;2.85;;;40.90;43.00;;;;;;4953710;28;20036;-65
2022/08/05 18:38:24;;;;;;;14.82;3.15;;;41.10;43.70;;;;;;4954671;28;20444;-66
2022/08/05 18:40:51;;;;;;;12.30;2.80;;;41.20;43.40;;;;;;4954954;28;20516;-65
2022/08/05 18:43:18;;;;;;;18.38;3.38;;;40.80;58.60;;;;;;4955036;28;20023;-66
2022/08/05 18:45:46;;;;;;;14.27;3.00;;;40.40;58.00;;;;;;4938857;28;20026;-64
2022/08/05 18:48:12;;;;;;;18.60;3.13;;;40.90;46.40;;;;;;4953695;28;20477;-64
2022/08/05 18:53:23;;;;;;;14.43;3.10;;;39.50;43.70;;;;;;4972165;28;20038;-64
2022/08/05 18:55:51;;;;;;;14.55;3.65;;;39.80;44.70;;;;;;4956175;28;20053;-63
2022/08/05 18:58:17;;;;;;;15.85;3.05;;;40.10;44.50;;;;;;4963351;28;20183;-64
2022/08/05 19:00:44;;;;;;;16.77;3.92;;;39.90;44.80;;;;;;4972633;28;20156;-64
2022/08/05 19:03:10;;;;;;;19.52;3.03;;;40.30;47.60;;;;;;4954137;28;20097;-64
2022/08/05 19:05:37;;;;;;;14.13;3.22;;;40.40;44.30;;;;;;4954511;28;20037;-65
2022/08/05 19:08:07;;;;;;;14.05;3.15;;;40.90;45.60;;;;;;4954358;28;20019;-66
2022/08/05 19:10:34;;;;;;;18.63;3.70;;;41.40;43.60;;;;;;4971712;28;20151;-65
2022/08/05 19:13:00;;;;;;;12.73;3.10;;;41.30;44.60;;;;;;4936911;28;20385;-65
2022/08/05 19:15:26;;;;;;;23.95;3.75;;;41.70;43.10;;;;;;4980766;28;20045;-65
2022/08/05 19:17:56;;;;;;;17.50;3.47;;;40.70;50.30;;;;;;4955895;28;20109;-65
2022/08/05 19:20:24;;;;;;;10.45;2.67;;;41.00;41.90;;;;;;4954513;28;20493;-66
2022/08/05 19:22:50;;;;;;;14.20;3.03;;;41.30;41.70;;;;;;4953530;28;20034;-66
2022/08/05 19:25:18;;;;;;;14.95;2.88;;;41.30;49.30;;;;;;4951917;28;20041;-65
2022/08/05 19:27:44;;;;;;;21.40;3.22;;;41.50;53.20;;;;;;4968566;28;20469;-64
2022/08/05 19:30:11;;;;;;;15.20;2.78;;;40.70;54.60;;;;;;4970397;28;20061;-66
2022/08/05 19:32:38;;;;;;;12.88;3.03;;;40.90;55.10;;;;;;4969067;28;20048;-65
2022/08/05 19:35:05;;;;;;;17.30;2.60;;;40.90;50.10;;;;;;4953050;28;20030;-65
2022/08/05 19:37:32;;;;;;;7.25;2.15;;;41.80;52.50;;;;;;4952498;28;20022;-65
2022/08/05 19:39:58;;;;;;;15.18;2.75;;;41.50;42.30;;;;;;4954044;28;20028;-65
2022/08/05 19:42:25;;;;;;;15.95;3.05;;;41.70;41.00;;;;;;4953249;28;21064;-67
2022/08/05 19:44:52;;;;;;;23.17;2.90;;;41.80;40.90;;;;;;4952546;28;20027;-65
2022/08/05 19:47:19;;;;;;;11.88;3.00;;;42.00;40.20;;;;;;4953151;28;20571;-65
2022/08/05 19:49:49;;;;;;;15.55;2.63;;;41.90;40.10;;;;;;4952226;28;20487;-65
2022/08/05 19:52:16;;;;;;;14.55;3.05;;;41.80;40.20;;;;;;4956186;28;20053;-66
2022/08/05 19:54:42;;;;;;;22.20;2.88;;;41.90;40.70;;;;;;4953694;28;20038;-65
2022/08/05 19:57:09;;;;;;;14.90;2.97;;;42.10;40.30;;;;;;4953149;28;20242;-65
2022/08/05 19:59:37;;;;;;;11.80;3.40;;;41.80;40.30;;;;;;4936723;28;20416;-65
2022/08/05 20:02:04;;;;;;;31.25;3.33;;;41.80;40.40;;;;;;4952772;28;20047;-67
2022/08/05 20:04:30;;;;;;;16.52;2.70;;;42.10;40.60;;;;;;4952070;28;20031;-65
2022/08/05 20:06:57;;;;;;;20.60;3.13;;;42.40;40.60;;;;;;4957792;28;20561;-65
2022/08/05 20:09:23;;;;;;;30.95;2.97;;;42.50;40.10;;;;;;4970307;28;20416;-66
2022/08/05 20:11:50;;;;;;;14.93;2.67;;;42.60;39.90;;;;;;4952882;28;20080;-65
2022/08/05 20:14:18;;;;;;;13.05;2.92;;;42.30;40.00;;;;;;4952723;28;20035;-66
2022/08/05 20:16:45;;;;;;;12.88;2.25;;;42.20;40.80;;;;;;4938500;28;20504;-65